Time;durP1;ratioP1;P1;durP2;ratioP2;P2;SDS_P1;SDS_P2;PMS_P1;PMS_P2;Temp;Humidity;BMP_temperature;BMP_pressure;BME280_temperature;BME280_humidity;BME280_pressure;Samples;Min_cycle;Max_cycle;Signal;HPM_P1;HPM_P2
2023/10/20 00:00:37;;;;;;;24.97;22.80;;;15.40;99.90;;;;;;10464935;28;20226;-77
2023/10/20 00:06:01;;;;;;;21.53;19.93;;;15.40;99.90;;;;;;10460601;28;20201;-78
2023/10/20 00:11:25;;;;;;;22.40;20.70;;;15.40;99.90;;;;;;10455820;28;20244;-74
2023/10/20 00:16:47;;;;;;;22.70;20.90;;;15.40;99.90;;;;;;10454451;28;20202;-79
2023/10/20 00:22:11;;;;;;;21.47;19.73;;;15.40;99.90;;;;;;10446970;28;20268;-79
2023/10/20 00:27:34;;;;;;;20.30;18.67;;;15.40;99.90;;;;;;10451087;28;20264;-79
2023/10/20 00:32:56;;;;;;;21.40;19.60;;;15.40;99.90;;;;;;10455878;28;20231;-79
2023/10/20 00:38:20;;;;;;;24.17;22.10;;;15.40;99.90;;;;;;10445988;28;20202;-78
2023/10/20 00:43:43;;;;;;;24.30;21.90;;;15.30;99.90;;;;;;10438680;28;20204;-79
2023/10/20 00:49:05;;;;;;;23.00;20.87;;;15.30;99.90;;;;;;10438008;28;20227;-79
2023/10/20 00:54:30;;;;;;;23.27;21.37;;;15.30;99.90;;;;;;10437680;28;20651;-78
2023/10/20 00:59:54;;;;;;;21.40;19.50;;;15.30;99.90;;;;;;10454118;28;20268;-78
2023/10/20 01:05:22;;;;;;;22.93;21.07;;;15.20;99.90;;;;;;10452172;28;20212;-79
2023/10/20 01:10:45;;;;;;;25.20;23.03;;;15.30;99.90;;;;;;10449928;28;20355;-79
2023/10/20 01:16:07;;;;;;;23.50;21.50;;;15.30;99.90;;;;;;10454618;28;20201;-79
2023/10/20 01:21:30;;;;;;;21.10;19.33;;;15.30;99.90;;;;;;10453289;28;20632;-79
2023/10/20 01:26:53;;;;;;;22.17;20.07;;;15.30;99.90;;;;;;10439862;28;20210;-79
2023/10/20 01:32:15;;;;;;;21.90;20.20;;;15.20;99.90;;;;;;10451578;28;20221;-79
2023/10/20 01:37:38;;;;;;;19.97;18.47;;;15.20;99.90;;;;;;10449181;28;20202;-78
2023/10/20 01:43:01;;;;;;;20.30;18.70;;;15.10;99.90;;;;;;10454995;28;20221;-79
2023/10/20 01:48:23;;;;;;;17.07;15.97;;;15.10;99.90;;;;;;10440187;28;20229;-79
2023/10/20 01:53:46;;;;;;;17.90;16.60;;;15.10;99.90;;;;;;10451479;28;20194;-78
2023/10/20 01:59:12;;;;;;;17.73;16.50;;;15.00;99.90;;;;;;10454465;28;20206;-76
2023/10/20 02:04:37;;;;;;;16.10;15.00;;;15.00;99.90;;;;;;10432796;28;20198;-78
2023/10/20 02:09:59;;;;;;;16.37;15.00;;;15.00;99.90;;;;;;10440169;28;20222;-78
2023/10/20 02:15:23;;;;;;;16.67;15.40;;;15.00;99.90;;;;;;10441288;28;20217;-78
2023/10/20 02:20:45;;;;;;;17.47;15.97;;;14.90;99.90;;;;;;10460483;28;20221;-78
2023/10/20 02:26:09;;;;;;;17.07;15.60;;;15.00;99.90;;;;;;10449679;28;20205;-79
2023/10/20 02:31:32;;;;;;;17.27;16.00;;;15.00;99.90;;;;;;10444544;28;20607;-78
2023/10/20 02:36:54;;;;;;;16.30;15.30;;;15.00;99.90;;;;;;10453093;28;20209;-79
2023/10/20 02:42:17;;;;;;;16.47;15.37;;;15.00;99.90;;;;;;10446569;28;20222;-79
2023/10/20 02:47:40;;;;;;;15.80;14.80;;;15.00;99.90;;;;;;10441509;28;20256;-79
2023/10/20 02:53:03;;;;;;;16.00;15.00;;;15.00;99.90;;;;;;10452340;28;20308;-78
2023/10/20 02:58:25;;;;;;;15.43;14.47;;;14.90;99.90;;;;;;10459892;28;20291;-79
2023/10/20 03:03:49;;;;;;;16.17;14.97;;;15.00;99.90;;;;;;10456126;28;20201;-79
2023/10/20 03:09:13;;;;;;;17.43;16.23;;;15.00;99.90;;;;;;10437936;28;20733;-79
2023/10/20 03:14:36;;;;;;;23.67;21.57;;;15.00;99.90;;;;;;10456860;28;20293;-79
2023/10/20 03:20:00;;;;;;;22.17;20.23;;;15.00;99.90;;;;;;10443702;28;20599;-79
2023/10/20 03:25:22;;;;;;;23.00;21.30;;;14.90;99.90;;;;;;10443964;28;20706;-79
2023/10/20 03:30:46;;;;;;;19.93;18.30;;;14.90;99.90;;;;;;10438532;28;20213;-79
2023/10/20 03:36:11;;;;;;;24.60;22.80;;;14.90;99.90;;;;;;10455177;28;20550;-79
2023/10/20 03:41:34;;;;;;;24.57;22.77;;;14.90;99.90;;;;;;10434335;28;20585;-79
2023/10/20 03:46:59;;;;;;;22.10;20.70;;;14.90;99.90;;;;;;10442119;28;20194;-79
2023/10/20 03:52:23;;;;;;;20.20;18.70;;;14.90;99.90;;;;;;10453745;28;20222;-80
2023/10/20 03:57:47;;;;;;;25.00;23.00;;;14.90;99.90;;;;;;10456638;28;20198;-80
2023/10/20 04:03:09;;;;;;;22.87;21.07;;;14.90;99.90;;;;;;10455401;28;20198;-80
2023/10/20 04:08:34;;;;;;;24.40;22.00;;;14.90;99.90;;;;;;10458165;28;20227;-80
2023/10/20 04:13:56;;;;;;;24.30;22.27;;;14.90;99.90;;;;;;10457824;28;20681;-79
2023/10/20 04:19:21;;;;;;;26.20;23.80;;;14.90;99.90;;;;;;10446060;28;20225;-80
2023/10/20 04:24:45;;;;;;;27.33;24.90;;;14.90;99.90;;;;;;10459452;28;20643;-80
2023/10/20 04:52:58;;;;;;;24.80;22.60;;;14.90;99.90;;;;;;10453820;28;20221;-80
2023/10/20 04:58:34;;;;;;;25.53;23.60;;;14.90;99.90;;;;;;10456154;28;20611;-79
2023/10/20 05:03:57;;;;;;;24.13;22.07;;;14.80;99.90;;;;;;10449329;28;20193;-80
2023/10/20 05:09:22;;;;;;;27.17;25.00;;;14.80;99.90;;;;;;10451531;28;20601;-79
2023/10/20 05:14:46;;;;;;;31.67;28.87;;;14.70;99.90;;;;;;10454241;28;20655;-79
2023/10/20 05:20:10;;;;;;;26.97;24.67;;;14.70;99.90;;;;;;10455808;28;20213;-79
2023/10/20 05:25:33;;;;;;;23.90;21.80;;;14.70;99.90;;;;;;10455732;28;20561;-79
2023/10/20 05:30:57;;;;;;;22.77;20.80;;;14.60;99.90;;;;;;10454600;28;20232;-79
2023/10/20 05:36:19;;;;;;;21.77;19.80;;;14.60;99.90;;;;;;10454020;28;20216;-78
2023/10/20 05:41:43;;;;;;;22.90;21.00;;;14.60;99.90;;;;;;10461497;28;20756;-78
2023/10/20 05:47:07;;;;;;;21.97;19.77;;;14.60;99.90;;;;;;10457389;28;20201;-79
2023/10/20 05:52:29;;;;;;;21.73;19.77;;;14.60;99.90;;;;;;10452223;28;20305;-79
2023/10/20 05:57:52;;;;;;;22.00;20.10;;;14.60;99.90;;;;;;10449506;28;20216;-79
2023/10/20 06:03:15;;;;;;;17.57;16.27;;;14.70;99.90;;;;;;10446127;28;20193;-79
2023/10/20 06:08:37;;;;;;;19.30;17.70;;;14.70;99.90;;;;;;10450070;28;20310;-78
2023/10/20 06:14:00;;;;;;;19.20;17.77;;;14.70;99.90;;;;;;10445244;28;20200;-79
2023/10/20 06:19:24;;;;;;;19.13;17.67;;;14.70;99.90;;;;;;10453725;28;20229;-79
2023/10/20 06:24:47;;;;;;;19.50;18.00;;;14.60;99.90;;;;;;10456526;28;20198;-79
2023/10/20 06:30:19;;;;;;;19.70;18.10;;;14.60;99.90;;;;;;10455013;28;20225;-79
2023/10/20 06:35:50;;;;;;;21.73;19.93;;;14.60;99.90;;;;;;10457385;28;20225;-78
2023/10/20 06:41:14;;;;;;;20.00;18.30;;;14.60;99.90;;;;;;10446398;28;20564;-79
2023/10/20 06:46:36;;;;;;;18.47;16.57;;;14.60;99.90;;;;;;10465785;28;20205;-78
2023/10/20 06:52:03;;;;;;;19.57;18.00;;;14.60;99.90;;;;;;10452448;28;20244;-78
2023/10/20 06:57:26;;;;;;;19.33;17.80;;;14.70;99.90;;;;;;10451924;28;20206;-78
2023/10/20 07:02:48;;;;;;;15.43;14.07;;;14.70;99.90;;;;;;10454086;28;20216;-78
2023/10/20 07:08:13;;;;;;;16.60;15.20;;;14.70;99.90;;;;;;10452454;28;20209;-78
2023/10/20 07:13:35;;;;;;;21.73;19.53;;;14.80;99.90;;;;;;10453629;28;20214;-79
2023/10/20 07:18:57;;;;;;;20.00;18.30;;;14.80;99.90;;;;;;10461237;28;20218;-78
2023/10/20 07:24:21;;;;;;;20.23;18.57;;;14.90;99.90;;;;;;10449743;28;20201;-78
2023/10/20 07:29:43;;;;;;;20.57;18.77;;;15.00;99.90;;;;;;10457154;28;20225;-78
2023/10/20 07:35:07;;;;;;;22.73;20.53;;;15.00;99.90;;;;;;10457038;28;20667;-78
2023/10/20 07:40:34;;;;;;;22.23;20.43;;;15.10;99.90;;;;;;10450682;28;20221;-79
2023/10/20 07:45:57;;;;;;;21.17;19.07;;;15.20;99.90;;;;;;10455930;28;20264;-79
2023/10/20 07:51:19;;;;;;;26.83;22.17;;;15.20;99.90;;;;;;10460491;28;20224;-79
2023/10/20 07:56:43;;;;;;;22.67;20.60;;;15.30;99.90;;;;;;10452750;28;20202;-78
2023/10/20 08:02:05;;;;;;;22.50;20.67;;;15.40;99.90;;;;;;10456624;28;20214;-79
2023/10/20 08:07:27;;;;;;;22.40;20.50;;;15.50;99.90;;;;;;10442925;28;20198;-79
2023/10/20 08:12:51;;;;;;;21.73;19.83;;;15.50;99.90;;;;;;10441820;28;20225;-78
2023/10/20 08:18:13;;;;;;;23.47;21.50;;;15.50;99.90;;;;;;10455339;28;20201;-79
2023/10/20 08:23:38;;;;;;;24.40;22.30;;;15.50;99.90;;;;;;10454492;28;20194;-79
2023/10/20 08:29:01;;;;;;;23.70;21.70;;;15.50;99.90;;;;;;10452654;28;20226;-79
2023/10/20 08:34:24;;;;;;;27.50;24.80;;;15.60;99.90;;;;;;10461408;28;20229;-79
2023/10/20 08:39:46;;;;;;;27.07;24.47;;;15.70;99.90;;;;;;10456468;28;20232;-79
2023/10/20 08:45:14;;;;;;;27.30;24.80;;;15.70;99.90;;;;;;10457975;28;20213;-77
2023/10/20 08:50:38;;;;;;;29.43;26.63;;;15.80;99.90;;;;;;10447611;28;20228;-79
2023/10/20 08:56:01;;;;;;;27.10;24.80;;;16.00;99.90;;;;;;10449076;28;20202;-78
2023/10/20 09:01:25;;;;;;;25.97;23.57;;;16.20;99.90;;;;;;10455294;28;20222;-75
2023/10/20 09:06:47;;;;;;;25.00;22.73;;;16.30;99.90;;;;;;10453407;28;20595;-78
2023/10/20 09:12:10;;;;;;;26.40;24.00;;;16.30;99.90;;;;;;10446392;28;20815;-78
2023/10/20 09:17:33;;;;;;;25.00;22.73;;;16.40;99.90;;;;;;10447945;28;20202;-79
2023/10/20 09:22:56;;;;;;;21.20;19.20;;;16.50;99.90;;;;;;10450185;28;20217;-80
2023/10/20 09:28:18;;;;;;;21.00;19.10;;;16.50;99.90;;;;;;10452959;28;20236;-80
2023/10/20 09:33:42;;;;;;;21.40;19.70;;;16.50;99.90;;;;;;10454381;28;20205;-80
2023/10/20 09:39:08;;;;;;;20.90;19.13;;;16.40;99.90;;;;;;10455163;28;20267;-78
2023/10/20 09:44:38;;;;;;;20.63;18.83;;;16.40;99.90;;;;;;10452311;28;20205;-79
2023/10/20 09:50:02;;;;;;;18.83;17.33;;;16.40;99.90;;;;;;10455884;28;20283;-79
2023/10/20 09:55:25;;;;;;;15.47;14.23;;;16.60;99.90;;;;;;10447980;28;20200;-79
2023/10/20 10:00:47;;;;;;;18.80;17.30;;;16.70;99.90;;;;;;10452559;28;20713;-80
2023/10/20 10:06:13;;;;;;;16.43;15.13;;;16.90;99.90;;;;;;10452930;28;20226;-80
2023/10/20 10:11:42;;;;;;;15.60;14.20;;;17.00;99.90;;;;;;10446913;28;20723;-80
2023/10/20 10:17:10;;;;;;;12.93;12.00;;;17.00;99.90;;;;;;10446636;28;20340;-80
2023/10/20 10:22:33;;;;;;;10.90;10.10;;;17.00;99.90;;;;;;10450720;28;20222;-80
2023/10/20 10:27:56;;;;;;;10.37;9.60;;;16.90;99.90;;;;;;10455419;28;20209;-80
2023/10/20 10:33:21;;;;;;;11.47;10.63;;;16.90;99.90;;;;;;10451122;28;20222;-80
2023/10/20 10:38:45;;;;;;;10.93;10.10;;;17.00;99.90;;;;;;10472365;28;21153;-80
2023/10/20 10:44:08;;;;;;;10.50;9.80;;;17.10;99.90;;;;;;10455342;28;20206;-80
2023/10/20 10:49:31;;;;;;;8.73;8.13;;;17.20;99.90;;;;;;10459992;28;20590;-79
2023/10/20 10:54:54;;;;;;;8.57;7.77;;;17.20;99.90;;;;;;10458769;28;20256;-79
2023/10/20 11:00:17;;;;;;;5.53;5.10;;;17.20;99.90;;;;;;10439629;28;20233;-80
2023/10/20 11:05:40;;;;;;;5.47;5.17;;;17.20;99.90;;;;;;10460042;28;20241;-80
2023/10/20 11:11:04;;;;;;;3.80;3.50;;;17.20;99.90;;;;;;10460199;28;20887;-80
2023/10/20 11:16:27;;;;;;;2.20;2.10;;;17.30;99.90;;;;;;10445506;28;20243;-80
2023/10/20 11:21:51;;;;;;;2.10;1.90;;;17.40;99.90;;;;;;10464087;28;20217;-79
2023/10/20 11:27:15;;;;;;;1.90;1.90;;;17.40;99.90;;;;;;10468034;28;20224;-80
2023/10/20 11:32:37;;;;;;;1.90;1.90;;;17.50;99.90;;;;;;10462031;28;20233;-80
2023/10/20 11:38:00;;;;;;;1.37;1.37;;;17.50;99.90;;;;;;10444107;28;20276;-80
2023/10/20 11:43:24;;;;;;;2.30;1.80;;;17.50;99.90;;;;;;10456967;28;20198;-80
2023/10/20 11:48:47;;;;;;;1.50;1.50;;;17.50;99.90;;;;;;10435727;28;20733;-80
2023/10/20 11:54:09;;;;;;;1.03;1.03;;;17.50;99.90;;;;;;10441742;28;20203;-80
2023/10/20 11:59:33;;;;;;;1.60;1.60;;;17.60;99.90;;;;;;10437099;28;20226;-80
2023/10/20 12:04:55;;;;;;;1.70;1.60;;;17.60;99.90;;;;;;10443185;28;20427;-80
2023/10/20 12:10:17;;;;;;;1.63;1.53;;;17.60;99.90;;;;;;10447247;28;20724;-80
2023/10/20 12:15:41;;;;;;;2.30;1.67;;;17.60;99.90;;;;;;10458387;28;20205;-80
2023/10/20 12:21:03;;;;;;;1.90;1.80;;;17.70;99.90;;;;;;10457394;28;20228;-80
2023/10/20 12:26:26;;;;;;;1.57;1.47;;;17.70;99.90;;;;;;10443467;28;20200;-80
2023/10/20 12:31:50;;;;;;;1.37;1.37;;;17.70;99.90;;;;;;10457239;28;20221;-80
2023/10/20 12:37:12;;;;;;;1.43;1.43;;;17.80;99.90;;;;;;10463870;28;20205;-81
2023/10/20 12:42:36;;;;;;;1.57;1.47;;;18.00;99.90;;;;;;10456002;28;20222;-80
2023/10/20 12:47:59;;;;;;;1.53;1.43;;;18.30;99.90;;;;;;10456102;28;20688;-80
2023/10/20 12:53:21;;;;;;;1.50;1.40;;;18.40;99.90;;;;;;10455096;28;20222;-80
2023/10/20 12:58:44;;;;;;;0.93;0.93;;;18.40;99.90;;;;;;10454930;28;20280;-80
2023/10/20 13:04:08;;;;;;;1.40;1.40;;;18.50;99.90;;;;;;10454620;28;20259;-80
2023/10/20 13:09:30;;;;;;;1.20;1.20;;;18.50;99.90;;;;;;10455083;28;20269;-80
2023/10/20 13:14:53;;;;;;;1.20;1.20;;;18.50;99.90;;;;;;10443019;28;20194;-80
2023/10/20 13:20:16;;;;;;;1.50;1.40;;;18.50;99.90;;;;;;10455065;28;20645;-80
2023/10/20 13:25:39;;;;;;;1.30;1.20;;;18.40;99.90;;;;;;10449190;28;20210;-80
2023/10/20 13:31:06;;;;;;;1.60;1.50;;;18.40;99.90;;;;;;10454956;28;20225;-80
2023/10/20 13:36:30;;;;;;;1.80;1.70;;;18.30;99.90;;;;;;10450007;28;20282;-80
2023/10/20 13:41:52;;;;;;;1.23;1.23;;;18.30;99.90;;;;;;10458503;28;20209;-80
2023/10/20 13:47:14;;;;;;;0.90;0.90;;;18.20;99.90;;;;;;10469017;28;20217;-79
2023/10/20 13:52:38;;;;;;;4.83;1.10;;;18.10;99.90;;;;;;10459533;28;20705;-77
2023/10/20 13:58:00;;;;;;;1.20;1.10;;;18.00;99.90;;;;;;10472867;28;20193;-80
2023/10/20 14:03:22;;;;;;;1.00;0.70;;;17.90;99.90;;;;;;10445887;28;20197;-80
2023/10/20 14:08:46;;;;;;;1.57;1.40;;;17.90;99.90;;;;;;10455903;28;20223;-80
2023/10/20 14:14:08;;;;;;;1.00;0.90;;;17.80;99.90;;;;;;10471566;28;20244;-80
2023/10/20 14:19:31;;;;;;;0.80;0.70;;;17.60;99.90;;;;;;10472622;28;20631;-80
2023/10/20 14:24:54;;;;;;;2.70;1.00;;;17.40;99.90;;;;;;10460997;28;20797;-80
2023/10/20 14:30:16;;;;;;;2.07;1.30;;;17.20;99.90;;;;;;10461842;28;20225;-78
2023/10/20 14:35:39;;;;;;;1.90;1.80;;;17.00;99.90;;;;;;10455741;28;20233;-80
2023/10/20 14:41:04;;;;;;;2.00;1.90;;;16.70;99.90;;;;;;10464300;28;20214;-79
2023/10/20 14:46:26;;;;;;;0.70;0.70;;;16.50;99.90;;;;;;10458514;28;20209;-80
2023/10/20 14:51:48;;;;;;;1.50;1.40;;;16.30;99.90;;;;;;10445151;28;20222;-79
2023/10/20 14:57:12;;;;;;;6.20;2.70;;;16.00;99.90;;;;;;10444695;28;20205;-79
2023/10/20 15:02:34;;;;;;;3.33;3.20;;;15.80;99.90;;;;;;10450589;28;20296;-80
2023/10/20 15:07:56;;;;;;;2.43;2.33;;;15.70;99.90;;;;;;10469483;23;20202;-78
2023/10/20 15:13:20;;;;;;;3.50;3.17;;;15.60;99.90;;;;;;10457731;28;20291;-78
2023/10/20 15:18:43;;;;;;;4.70;4.40;;;15.60;99.90;;;;;;10463485;28;20232;-78
2023/10/20 15:24:06;;;;;;;4.30;4.03;;;15.60;99.90;;;;;;10490129;28;20199;-78
2023/10/20 15:29:30;;;;;;;5.40;5.10;;;15.60;99.90;;;;;;10496217;28;20231;-78
2023/10/20 15:34:53;;;;;;;4.00;3.80;;;15.70;99.90;;;;;;10474576;28;20203;-78
2023/10/20 15:40:16;;;;;;;13.40;12.00;;;15.70;99.90;;;;;;10483648;28;20225;-78
2023/10/20 15:45:39;;;;;;;4.30;4.10;;;15.70;99.90;;;;;;10491836;28;20201;-78
2023/10/20 15:51:04;;;;;;;3.87;3.67;;;15.70;99.90;;;;;;10500618;28;20609;-78
2023/10/20 15:56:27;;;;;;;3.20;3.10;;;15.80;99.90;;;;;;10486201;28;20581;-79
2023/10/20 16:01:51;;;;;;;3.90;3.70;;;15.80;99.90;;;;;;10498357;28;20698;-79
2023/10/20 16:07:13;;;;;;;4.50;4.10;;;15.80;99.90;;;;;;10472661;28;20533;-79
2023/10/20 16:12:35;;;;;;;3.60;3.40;;;15.80;99.90;;;;;;10494918;28;20228;-78
2023/10/20 16:17:59;;;;;;;2.70;2.60;;;15.90;99.90;;;;;;10482603;28;20198;-78
2023/10/20 16:23:21;;;;;;;3.80;3.60;;;15.90;99.90;;;;;;10481604;28;20269;-79
2023/10/20 16:28:43;;;;;;;3.13;2.33;;;15.90;99.90;;;;;;10490139;28;20229;-79
2023/10/20 16:34:07;;;;;;;3.40;3.13;;;15.90;99.90;;;;;;10493294;28;20267;-79
2023/10/20 16:39:29;;;;;;;3.23;3.03;;;15.80;99.90;;;;;;10496869;28;20225;-79
2023/10/20 16:44:52;;;;;;;2.90;2.80;;;15.80;99.90;;;;;;10480264;28;20201;-78
2023/10/20 16:50:16;;;;;;;2.80;2.70;;;15.90;99.90;;;;;;10495466;28;20370;-78
2023/10/20 16:55:39;;;;;;;4.13;3.80;;;15.80;99.90;;;;;;10494300;28;20251;-79
2023/10/20 17:01:02;;;;;;;5.23;3.83;;;15.80;99.90;;;;;;10492765;28;20690;-79
2023/10/20 17:06:27;;;;;;;7.40;6.80;;;15.80;99.90;;;;;;10479981;28;20208;-79
2023/10/20 17:11:50;;;;;;;10.67;7.97;;;15.80;99.90;;;;;;10493377;28;20217;-79
2023/10/20 17:17:12;;;;;;;4.60;4.30;;;15.80;99.90;;;;;;10495782;28;20205;-79
2023/10/20 17:22:35;;;;;;;5.10;3.43;;;15.80;99.90;;;;;;10490659;28;20216;-79
2023/10/20 17:27:58;;;;;;;23.00;14.20;;;15.70;99.90;;;;;;10494796;28;20551;-79
2023/10/20 17:33:20;;;;;;;6.83;6.20;;;15.70;99.90;;;;;;10492884;28;20219;-79
2023/10/20 17:38:44;;;;;;;13.97;10.50;;;15.70;99.90;;;;;;10477368;28;20406;-79
2023/10/20 17:44:06;;;;;;;21.90;14.93;;;15.70;99.90;;;;;;10491512;28;20547;-79
2023/10/20 17:49:28;;;;;;;4.63;4.33;;;15.70;99.90;;;;;;10485126;28;20217;-79
2023/10/20 17:54:52;;;;;;;3.73;3.43;;;15.70;99.90;;;;;;10491091;28;20220;-79
2023/10/20 18:00:15;;;;;;;4.13;3.90;;;15.60;99.90;;;;;;10476100;28;20601;-78
2023/10/20 18:05:38;;;;;;;3.60;3.40;;;15.60;99.90;;;;;;10468608;28;20197;-79
2023/10/20 18:11:05;;;;;;;4.63;4.23;;;15.60;99.90;;;;;;10475941;28;20229;-79
2023/10/20 18:16:29;;;;;;;2.50;2.30;;;15.60;99.90;;;;;;10467939;28;20556;-77
2023/10/20 18:21:51;;;;;;;5.30;4.93;;;15.60;99.90;;;;;;10488823;28;20235;-79
2023/10/20 18:27:15;;;;;;;5.50;5.00;;;15.60;99.90;;;;;;10490353;28;20216;-78
2023/10/20 18:32:37;;;;;;;4.73;4.43;;;15.50;99.90;;;;;;10473470;28;20228;-79
2023/10/20 18:38:00;;;;;;;4.37;4.07;;;15.50;99.90;;;;;;10489109;28;20588;-79
2023/10/20 18:43:24;;;;;;;6.07;4.17;;;15.50;99.90;;;;;;10489268;28;20205;-78
2023/10/20 18:48:46;;;;;;;3.27;3.07;;;15.50;99.90;;;;;;10488455;28;20300;-77
2023/10/20 18:54:09;;;;;;;4.23;3.83;;;15.50;99.90;;;;;;10490400;28;20827;-80
2023/10/20 18:59:33;;;;;;;5.27;4.87;;;15.50;99.90;;;;;;10489537;28;20693;-78
2023/10/20 19:04:55;;;;;;;5.20;4.80;;;15.40;99.90;;;;;;10473865;28;20197;-79
2023/10/20 19:10:18;;;;;;;5.00;4.67;;;15.40;99.90;;;;;;10497932;28;20232;-78
2023/10/20 19:15:42;;;;;;;4.53;4.23;;;15.40;99.90;;;;;;10497168;28;20205;-79
2023/10/20 19:21:06;;;;;;;5.93;5.53;;;15.30;99.90;;;;;;10495197;28;20291;-79
2023/10/20 19:26:28;;;;;;;5.80;5.30;;;15.20;99.90;;;;;;10476331;28;20288;-80
2023/10/20 19:31:52;;;;;;;5.70;5.30;;;15.20;99.90;;;;;;10496278;28;20224;-79
2023/10/20 19:37:14;;;;;;;5.20;5.00;;;15.10;99.90;;;;;;10498060;28;20266;-79
2023/10/20 19:42:37;;;;;;;5.63;5.33;;;15.10;99.90;;;;;;10496229;28;20221;-81
2023/10/20 19:48:01;;;;;;;4.63;4.43;;;15.10;99.90;;;;;;10495972;28;20328;-78
2023/10/20 19:53:23;;;;;;;4.10;3.90;;;15.10;99.90;;;;;;10492533;28;20609;-79
2023/10/20 19:58:46;;;;;;;4.60;4.30;;;15.10;99.90;;;;;;10489312;28;20248;-79
2023/10/20 20:04:09;;;;;;;4.90;4.63;;;15.10;99.90;;;;;;10502416;28;20193;-80
2023/10/20 20:09:31;;;;;;;4.00;3.80;;;15.00;99.90;;;;;;10507586;28;20738;-79
2023/10/20 20:14:54;;;;;;;4.63;4.43;;;15.00;99.90;;;;;;10500133;28;20221;-78
2023/10/20 20:20:17;;;;;;;4.57;4.37;;;15.00;99.90;;;;;;10505626;28;20220;-79
2023/10/20 20:25:39;;;;;;;5.07;4.83;;;15.00;99.90;;;;;;10503930;28;20192;-79
2023/10/20 20:31:02;;;;;;;5.30;5.00;;;15.00;99.90;;;;;;10505007;28;20228;-79
2023/10/20 20:36:26;;;;;;;5.13;4.83;;;15.00;99.90;;;;;;10497144;28;20201;-79
2023/10/20 20:41:48;;;;;;;5.53;5.13;;;15.00;99.90;;;;;;10495237;28;20209;-79
2023/10/20 20:47:10;;;;;;;5.97;4.87;;;15.00;99.90;;;;;;10495850;28;20212;-79
2023/10/20 20:52:36;;;;;;;5.87;5.47;;;15.00;99.90;;;;;;10493927;28;20224;-79
2023/10/20 20:57:58;;;;;;;4.83;4.47;;;15.00;99.90;;;;;;10495862;28;20199;-78
2023/10/20 21:03:20;;;;;;;4.73;4.33;;;15.10;99.90;;;;;;10492690;28;20603;-78
2023/10/20 21:08:46;;;;;;;5.67;5.23;;;15.10;99.90;;;;;;10496577;28;20244;-78
2023/10/20 21:14:08;;;;;;;4.53;4.33;;;15.10;99.90;;;;;;10556892;22;20227;-78
2023/10/20 21:19:30;;;;;;;4.40;4.00;;;15.10;99.90;;;;;;10556721;28;20599;-78
2023/10/20 21:24:57;;;;;;;4.30;4.10;;;15.10;99.90;;;;;;10488405;28;20630;-78
2023/10/20 21:30:20;;;;;;;4.53;4.30;;;15.10;99.90;;;;;;10511793;28;20200;-78
2023/10/20 21:35:42;;;;;;;4.17;3.87;;;15.10;99.90;;;;;;10516800;28;20219;-77
2023/10/20 21:41:05;;;;;;;4.10;3.90;;;15.10;99.90;;;;;;10501083;28;20213;-75
2023/10/20 21:46:28;;;;;;;4.53;4.33;;;15.00;99.90;;;;;;10510654;28;20208;-78
2023/10/20 21:51:50;;;;;;;3.97;3.67;;;15.00;99.90;;;;;;10502608;28;20717;-76
2023/10/20 21:57:14;;;;;;;4.00;3.80;;;14.90;99.90;;;;;;10520088;28;20197;-79
2023/10/20 22:02:36;;;;;;;3.60;3.40;;;14.90;99.90;;;;;;10498689;28;20220;-77
2023/10/20 22:07:58;;;;;;;3.43;3.23;;;14.90;99.90;;;;;;10509000;28;20205;-77
2023/10/20 22:13:22;;;;;;;4.10;3.80;;;14.80;99.90;;;;;;10493887;28;20229;-77
2023/10/20 22:18:48;;;;;;;3.50;3.30;;;14.80;99.90;;;;;;10531049;28;20207;-76
2023/10/20 22:24:11;;;;;;;3.63;3.43;;;14.70;99.90;;;;;;10489448;28;20213;-77
2023/10/20 22:29:35;;;;;;;3.33;3.13;;;14.70;99.90;;;;;;10498833;28;20194;-77
2023/10/20 22:34:57;;;;;;;3.20;3.00;;;14.70;99.90;;;;;;10502809;28;20228;-77
2023/10/20 22:40:21;;;;;;;3.07;2.97;;;14.70;99.90;;;;;;10507189;28;20192;-77
2023/10/20 22:45:44;;;;;;;4.23;3.10;;;14.60;99.90;;;;;;10537215;28;20223;-77
2023/10/20 22:51:06;;;;;;;2.90;2.80;;;14.60;99.90;;;;;;10529211;28;20216;-77
2023/10/20 22:56:30;;;;;;;3.13;2.90;;;14.50;99.90;;;;;;10524456;28;20192;-77
2023/10/20 23:01:54;;;;;;;2.97;2.87;;;14.50;99.90;;;;;;10503514;28;20229;-77
2023/10/20 23:07:16;;;;;;;2.83;2.63;;;14.50;99.90;;;;;;10518981;28;20235;-76
2023/10/20 23:12:38;;;;;;;2.80;2.70;;;14.60;99.90;;;;;;10511521;28;20724;-77
2023/10/20 23:18:02;;;;;;;2.70;2.60;;;14.60;99.90;;;;;;10522655;28;20210;-77
2023/10/20 23:23:25;;;;;;;2.30;2.20;;;14.70;99.90;;;;;;10506235;28;20225;-77
2023/10/20 23:28:48;;;;;;;2.90;2.70;;;14.70;99.90;;;;;;10485829;28;20331;-77
2023/10/20 23:34:11;;;;;;;2.80;2.40;;;14.70;99.90;;;;;;10526725;28;20690;-77
2023/10/20 23:39:35;;;;;;;3.90;2.77;;;14.70;99.90;;;;;;10532203;28;20211;-77
2023/10/20 23:44:57;;;;;;;2.40;2.30;;;14.60;99.90;;;;;;10495690;28;20220;-77
2023/10/20 23:50:21;;;;;;;2.97;2.77;;;14.60;99.90;;;;;;10527203;28;20201;-77
2023/10/20 23:55:43;;;;;;;2.57;2.23;;;14.50;99.90;;;;;;10480349;28;20224;-77
